createdAt,value
2019-02-20T00:01:26.343Z,7.50
2019-02-20T00:04:06.727Z,7.03
2019-02-20T00:06:47.570Z,7.97
2019-02-20T00:09:28.676Z,7.00
2019-02-20T00:12:09.575Z,7.30
2019-02-20T00:14:50.531Z,7.03
2019-02-20T00:17:30.970Z,7.10
2019-02-20T00:20:11.375Z,6.93
2019-02-20T00:22:52.136Z,6.10
2019-02-20T00:25:33.085Z,7.03
2019-02-20T00:28:13.739Z,7.00
2019-02-20T00:30:54.440Z,6.60
2019-02-20T00:33:34.757Z,7.10
2019-02-20T00:36:15.093Z,6.63
2019-02-20T00:38:55.361Z,6.30
2019-02-20T00:41:35.856Z,6.23
2019-02-20T00:47:43.725Z,6.10
2019-02-20T00:50:26.681Z,6.80
2019-02-20T00:53:12.209Z,6.70
2019-02-20T00:55:53.053Z,6.87
2019-02-20T00:58:33.716Z,7.30
2019-02-20T01:01:14.794Z,7.40
2019-02-20T01:03:55.391Z,7.27
2019-02-20T01:06:36.263Z,7.50
2019-02-20T01:09:16.946Z,6.83
2019-02-20T01:11:57.785Z,8.00
2019-02-20T01:14:38.867Z,7.43
2019-02-20T01:17:19.557Z,8.43
2019-02-20T01:20:00.589Z,8.53
2019-02-20T01:22:41.632Z,8.90
2019-02-20T01:25:22.302Z,8.30
2019-02-20T01:28:03.307Z,10.60
2019-02-20T01:30:43.950Z,9.47
2019-02-20T01:33:24.548Z,10.03
2019-02-20T01:36:05.167Z,9.40
2019-02-20T01:38:45.637Z,9.97
2019-02-20T01:41:26.468Z,9.73
2019-02-20T01:44:07.199Z,9.97
2019-02-20T01:46:48.147Z,9.03
2019-02-20T01:49:28.930Z,9.23
2019-02-20T01:52:09.502Z,8.27
2019-02-20T01:54:50.108Z,8.03
2019-02-20T01:57:30.948Z,7.23
2019-02-20T02:00:11.848Z,6.13
2019-02-20T02:02:52.641Z,6.80
2019-02-20T02:05:33.566Z,6.07
2019-02-20T02:08:14.230Z,6.37
2019-02-20T02:10:54.860Z,6.37
2019-02-20T02:13:35.666Z,6.33
2019-02-20T02:16:16.263Z,6.07
2019-02-20T02:18:56.684Z,5.30
2019-02-20T02:21:37.297Z,5.20
2019-02-20T02:24:18.015Z,6.10
2019-02-20T02:26:58.403Z,5.50
2019-02-20T02:29:39.153Z,5.30
2019-02-20T02:32:19.869Z,4.83
2019-02-20T02:35:00.410Z,5.07
2019-02-20T02:37:41.046Z,5.10
2019-02-20T02:40:21.429Z,4.93
2019-02-20T02:43:01.779Z,4.73
2019-02-20T02:45:42.649Z,5.67
2019-02-20T02:48:23.283Z,4.67
2019-02-20T02:51:03.697Z,4.80
2019-02-20T02:53:44.542Z,4.80
2019-02-20T02:56:24.957Z,4.47
2019-02-20T02:59:05.668Z,5.07
2019-02-20T03:01:45.982Z,4.40
2019-02-20T03:04:26.493Z,4.70
2019-02-20T03:07:07.214Z,4.53
2019-02-20T03:09:47.494Z,3.93
2019-02-20T03:12:28.139Z,4.33
2019-02-20T03:15:09.323Z,3.90
2019-02-20T03:17:50.016Z,5.20
2019-02-20T03:20:30.447Z,4.57
2019-02-20T03:23:11.165Z,4.87
2019-02-20T03:25:51.983Z,4.23
2019-02-20T03:28:32.488Z,4.37
2019-02-20T03:31:13.514Z,4.40
2019-02-20T03:33:54.313Z,4.50
2019-02-20T03:36:35.166Z,4.63
2019-02-20T03:39:15.920Z,4.20
2019-02-20T03:41:56.554Z,4.80
2019-02-20T03:44:37.221Z,5.33
2019-02-20T03:47:20.117Z,5.10
2019-02-20T03:50:00.416Z,5.87
2019-02-20T03:52:40.967Z,5.63
2019-02-20T03:55:21.654Z,4.27
2019-02-20T03:58:02.240Z,4.97
2019-02-20T04:00:43.042Z,4.93
2019-02-20T04:03:23.603Z,4.80
2019-02-20T04:06:04.351Z,4.43
2019-02-20T04:08:45.303Z,5.00
2019-02-20T04:11:25.756Z,5.60
2019-02-20T04:14:06.411Z,5.60
2019-02-20T04:16:47.202Z,5.40
2019-02-20T04:19:27.746Z,5.50
2019-02-20T04:22:08.150Z,5.63
2019-02-20T04:24:49.031Z,6.70
2019-02-20T04:27:29.769Z,7.20
2019-02-20T04:30:10.631Z,6.67
2019-02-20T04:32:51.640Z,6.33
2019-02-20T04:35:32.156Z,5.53
2019-02-20T04:38:12.636Z,5.60
2019-02-20T04:40:53.843Z,6.00
2019-02-20T04:43:34.383Z,6.10
2019-02-20T04:46:15.203Z,6.20
2019-02-20T04:48:56.125Z,7.23
2019-02-20T04:51:36.560Z,6.90
2019-02-20T04:54:17.180Z,6.83
2019-02-20T04:56:57.708Z,7.13
2019-02-20T04:59:38.544Z,7.90
2019-02-20T05:02:19.189Z,7.77
2019-02-20T05:04:59.676Z,7.07
2019-02-20T05:07:40.415Z,7.63
2019-02-20T05:10:21.259Z,7.10
2019-02-20T05:13:02.241Z,7.30
2019-02-20T05:15:43.007Z,7.40
2019-02-20T05:18:23.959Z,7.33
2019-02-20T05:21:04.904Z,7.70
2019-02-20T05:23:45.972Z,6.70
2019-02-20T05:26:26.832Z,7.03
2019-02-20T05:29:07.536Z,7.20
2019-02-20T05:31:48.070Z,7.67
2019-02-20T05:34:28.752Z,7.20
2019-02-20T05:37:09.660Z,7.30
2019-02-20T05:39:50.354Z,7.83
2019-02-20T05:42:30.850Z,7.27
2019-02-20T05:45:11.825Z,7.30
2019-02-20T05:47:52.435Z,7.07
2019-02-20T05:50:32.908Z,7.20
2019-02-20T05:53:13.701Z,6.80
2019-02-20T05:55:54.580Z,7.30
2019-02-20T05:58:35.470Z,7.63
2019-02-20T06:01:16.237Z,7.40
2019-02-20T06:03:56.744Z,7.67
2019-02-20T06:06:37.565Z,7.23
2019-02-20T06:09:46.070Z,7.37
2019-02-20T06:12:33.843Z,7.40
2019-02-20T06:15:14.826Z,7.83
2019-02-20T06:17:55.443Z,7.53
2019-02-20T06:20:36.358Z,7.33
2019-02-20T06:23:17.034Z,7.93
2019-02-20T06:25:57.543Z,7.00
2019-02-20T06:28:38.037Z,8.07
2019-02-20T06:31:19.127Z,7.43
2019-02-20T06:33:59.696Z,7.97
2019-02-20T06:36:40.466Z,8.47
2019-02-20T06:39:21.120Z,7.80
2019-02-20T06:42:01.574Z,7.80
2019-02-20T06:44:42.379Z,6.93
2019-02-20T06:47:23.007Z,7.30
2019-02-20T06:50:03.594Z,7.50
2019-02-20T06:52:44.493Z,7.67
2019-02-20T06:55:24.946Z,7.53
2019-02-20T06:58:06.083Z,7.10
2019-02-20T07:00:46.921Z,7.90
2019-02-20T07:03:27.960Z,8.30
2019-02-20T07:06:08.610Z,7.07
2019-02-20T07:08:49.697Z,6.70
2019-02-20T07:11:30.425Z,8.00
2019-02-20T07:14:11.302Z,7.23
2019-02-20T07:16:51.658Z,7.13
2019-02-20T07:19:32.730Z,7.33
2019-02-20T07:22:13.519Z,7.53
2019-02-20T07:25:02.636Z,7.77
2019-02-20T07:27:36.394Z,8.20
2019-02-20T07:30:17.216Z,8.73
2019-02-20T07:32:57.829Z,8.23
2019-02-20T07:35:38.463Z,7.63
2019-02-20T07:38:19.190Z,7.87
2019-02-20T07:41:00.008Z,7.93
2019-02-20T07:43:40.901Z,7.67
2019-02-20T07:46:21.218Z,7.70
2019-02-20T07:49:02.060Z,7.60
2019-02-20T07:51:43.079Z,7.90
2019-02-20T07:54:23.855Z,7.73
2019-02-20T07:57:04.926Z,7.50
2019-02-20T07:59:45.879Z,6.97
2019-02-20T08:02:26.834Z,8.37
2019-02-20T08:05:07.710Z,7.27
2019-02-20T08:07:48.252Z,7.07
2019-02-20T08:10:28.841Z,7.60
2019-02-20T08:13:09.587Z,7.33
2019-02-20T08:15:50.257Z,7.40
2019-02-20T08:18:30.863Z,8.37
2019-02-20T08:21:11.270Z,7.53
2019-02-20T08:23:51.621Z,7.93
2019-02-20T08:26:32.123Z,6.90
2019-02-20T08:29:12.884Z,7.47
2019-02-20T08:31:53.989Z,7.00
2019-02-20T08:34:34.315Z,7.17
2019-02-20T08:37:14.667Z,7.50
2019-02-20T08:39:55.243Z,7.70
2019-02-20T08:42:36.312Z,7.70
2019-02-20T08:45:16.744Z,7.83
2019-02-20T08:47:57.140Z,7.33
2019-02-20T08:50:37.632Z,7.23
2019-02-20T08:53:17.967Z,7.17
2019-02-20T08:55:58.859Z,8.20
2019-02-20T08:58:39.750Z,8.80
2019-02-20T09:01:20.076Z,8.50
2019-02-20T09:04:00.981Z,7.03
2019-02-20T09:06:41.903Z,7.50
2019-02-20T09:09:22.630Z,7.97
2019-02-20T09:12:03.367Z,6.30
2019-02-20T09:14:44.234Z,7.30
2019-02-20T09:17:24.715Z,7.57
2019-02-20T09:20:05.315Z,10.30
2019-02-20T09:22:45.855Z,7.80
2019-02-20T09:25:26.825Z,7.07
2019-02-20T09:28:07.436Z,7.03
2019-02-20T09:30:48.092Z,8.13
2019-02-20T09:33:29.088Z,6.57
2019-02-20T09:36:09.695Z,7.17
2019-02-20T09:38:50.500Z,7.37
2019-02-20T09:41:31.228Z,9.33
2019-02-20T09:44:12.016Z,7.47
2019-02-20T09:46:52.523Z,6.97
2019-02-20T09:49:33.247Z,8.53
2019-02-20T09:52:13.643Z,7.83
2019-02-20T09:54:54.548Z,7.40
2019-02-20T09:57:35.150Z,8.07
2019-02-20T10:00:16.067Z,7.97
2019-02-20T10:02:56.915Z,7.57
2019-02-20T10:05:37.458Z,7.93
2019-02-20T10:08:18.030Z,7.57
2019-02-20T10:10:58.784Z,8.83
2019-02-20T10:13:40.102Z,8.13
2019-02-20T10:16:20.823Z,8.47
2019-02-20T10:19:01.335Z,9.47
2019-02-20T10:21:41.969Z,8.83
2019-02-20T10:24:22.749Z,8.13
2019-02-20T10:27:03.255Z,8.07
2019-02-20T10:29:43.614Z,8.37
2019-02-20T10:32:24.180Z,8.43
2019-02-20T10:35:04.679Z,7.33
2019-02-20T10:37:45.315Z,7.67
2019-02-20T10:40:26.194Z,8.43
2019-02-20T10:43:07.234Z,8.00
2019-02-20T10:45:48.011Z,7.97
2019-02-20T10:48:28.973Z,8.53
2019-02-20T10:51:09.726Z,8.03
2019-02-20T10:53:50.319Z,8.60
2019-02-20T10:56:31.014Z,7.57
2019-02-20T10:59:11.716Z,8.40
2019-02-20T11:01:52.426Z,7.90
2019-02-20T11:04:33.011Z,9.13
2019-02-20T11:07:13.395Z,8.53
2019-02-20T11:09:54.081Z,7.90
2019-02-20T11:12:34.946Z,8.63
2019-02-20T11:15:15.749Z,8.30
2019-02-20T11:17:56.464Z,8.50
2019-02-20T11:20:36.755Z,9.10
2019-02-20T11:23:17.610Z,7.83
2019-02-20T11:25:58.235Z,7.07
2019-02-20T11:28:39.058Z,8.13
2019-02-20T11:31:20.016Z,8.00
2019-02-20T11:34:01.875Z,8.40
2019-02-20T11:36:42.550Z,8.13
2019-02-20T11:39:23.200Z,7.63
2019-02-20T11:42:03.743Z,8.07
2019-02-20T11:44:44.280Z,8.30
2019-02-20T11:47:25.250Z,7.40
2019-02-20T11:50:07.803Z,7.93
2019-02-20T11:52:48.966Z,8.50
2019-02-20T11:55:30.142Z,8.37
2019-02-20T11:58:10.603Z,8.20
2019-02-20T12:00:51.015Z,7.67
2019-02-20T12:03:31.834Z,8.07
2019-02-20T12:06:12.855Z,7.70
2019-02-20T12:08:55.582Z,8.03
2019-02-20T12:11:36.348Z,7.80
2019-02-20T12:14:17.291Z,7.33
2019-02-20T12:16:58.486Z,7.47
2019-02-20T12:19:39.453Z,8.33
2019-02-20T12:22:19.855Z,7.13
2019-02-20T12:25:00.361Z,7.57
2019-02-20T12:27:41.291Z,6.80
2019-02-20T12:30:21.642Z,8.13
2019-02-20T12:33:02.498Z,7.90
2019-02-20T12:35:43.159Z,7.10
2019-02-20T12:38:23.661Z,7.47
2019-02-20T12:41:04.214Z,6.67
2019-02-20T12:43:45.365Z,6.80
2019-02-20T12:46:25.780Z,7.00
2019-02-20T12:49:06.598Z,6.67
2019-02-20T12:51:47.343Z,7.30
2019-02-20T12:54:27.809Z,7.03
2019-02-20T12:57:10.322Z,6.40
2019-02-20T12:59:51.176Z,6.50
2019-02-20T13:02:32.014Z,7.20
2019-02-20T13:05:12.689Z,6.73
2019-02-20T13:07:53.456Z,6.73
2019-02-20T13:10:33.802Z,7.13
2019-02-20T13:13:14.731Z,7.50
2019-02-20T13:15:55.567Z,7.50
2019-02-20T13:18:36.379Z,7.27
2019-02-20T13:21:16.916Z,7.03
2019-02-20T13:23:57.905Z,7.37
2019-02-20T13:26:38.418Z,7.83
2019-02-20T13:29:18.894Z,7.97
2019-02-20T13:31:59.819Z,7.53
2019-02-20T13:34:40.970Z,7.73
2019-02-20T13:37:21.357Z,8.67
2019-02-20T13:40:02.155Z,7.50
2019-02-20T13:42:42.846Z,7.17
2019-02-20T13:45:23.805Z,8.53
2019-02-20T13:48:04.620Z,7.63
2019-02-20T13:50:45.199Z,8.03
2019-02-20T13:53:25.612Z,8.10
2019-02-20T13:56:06.082Z,8.37
2019-02-20T13:58:46.881Z,7.93
2019-02-20T14:01:28.375Z,7.83
2019-02-20T14:04:08.974Z,7.90
2019-02-20T14:06:49.367Z,7.23
2019-02-20T14:09:30.124Z,8.37
2019-02-20T14:12:10.862Z,7.60
2019-02-20T14:14:51.383Z,7.10
2019-02-20T14:17:32.093Z,7.70
2019-02-20T14:20:12.665Z,7.87
2019-02-20T14:22:53.954Z,7.43
2019-02-20T14:25:36.366Z,7.13
2019-02-20T14:28:17.659Z,6.93
2019-02-20T14:30:58.401Z,6.97
2019-02-20T14:33:39.185Z,7.30
2019-02-20T14:36:19.937Z,7.43
2019-02-20T14:39:00.765Z,7.20
2019-02-20T14:41:41.731Z,7.27
2019-02-20T14:44:22.235Z,7.40
2019-02-20T14:47:03.081Z,7.83
2019-02-20T14:49:43.885Z,7.70
2019-02-20T14:52:24.423Z,8.30
2019-02-20T14:55:05.226Z,8.17
2019-02-20T14:57:45.959Z,7.67
2019-02-20T15:00:26.895Z,8.03
2019-02-20T15:03:07.710Z,8.27
2019-02-20T15:05:48.580Z,8.10
2019-02-20T15:08:29.427Z,8.23
2019-02-20T15:11:10.530Z,8.80
2019-02-20T15:13:50.950Z,6.93
2019-02-20T15:16:31.505Z,6.23
2019-02-20T15:19:12.545Z,6.17
2019-02-20T15:21:57.416Z,5.13
2019-02-20T15:24:38.008Z,5.80
2019-02-20T15:27:19.309Z,5.37
2019-02-20T15:30:01.779Z,5.47
2019-02-20T15:32:42.623Z,5.40
2019-02-20T15:35:23.313Z,5.60
2019-02-20T15:38:05.203Z,6.20
2019-02-20T15:40:45.980Z,5.27
2019-02-20T15:43:26.935Z,4.90
2019-02-20T15:46:07.679Z,6.37
2019-02-20T15:48:48.396Z,5.53
2019-02-20T15:51:29.638Z,5.60
2019-02-20T15:54:10.535Z,5.27
2019-02-20T15:56:51.255Z,6.10
2019-02-20T15:59:32.316Z,5.60
2019-02-20T16:02:13.023Z,5.67
2019-02-20T16:04:54.153Z,5.80
2019-02-20T16:07:34.988Z,5.83
2019-02-20T16:10:15.771Z,6.63
2019-02-20T16:12:56.214Z,6.10
2019-02-20T16:15:36.862Z,6.73
2019-02-20T16:18:17.527Z,6.77
2019-02-20T16:20:57.897Z,5.90
2019-02-20T16:23:38.422Z,6.10
2019-02-20T16:26:18.827Z,6.33
2019-02-20T16:28:59.709Z,7.00
2019-02-20T16:31:40.591Z,7.17
2019-02-20T16:34:21.331Z,6.60
2019-02-20T16:37:02.136Z,7.40
2019-02-20T16:39:42.934Z,7.27
2019-02-20T16:42:23.484Z,7.60
2019-02-20T16:45:04.318Z,7.73
2019-02-20T16:47:44.954Z,7.50
2019-02-20T16:50:26.393Z,7.60
2019-02-20T16:53:06.697Z,8.60
2019-02-20T16:55:47.630Z,7.33
2019-02-20T16:58:29.033Z,8.97
2019-02-20T17:01:09.947Z,8.50
2019-02-20T17:03:50.941Z,9.57
2019-02-20T17:06:31.899Z,9.27
2019-02-20T17:09:12.678Z,9.07
2019-02-20T17:11:53.264Z,9.40
2019-02-20T17:14:34.157Z,9.37
2019-02-20T17:17:15.014Z,8.97
2019-02-20T17:19:55.683Z,8.97
2019-02-20T17:22:36.654Z,9.40
2019-02-20T17:25:18.245Z,9.30
2019-02-20T17:28:05.528Z,8.73
2019-02-20T17:30:41.510Z,9.20
2019-02-20T17:33:22.305Z,8.80
2019-02-20T17:36:02.858Z,9.73
2019-02-20T17:38:43.891Z,9.03
2019-02-20T17:41:24.254Z,9.83
2019-02-20T17:44:04.998Z,10.03
2019-02-20T17:46:45.718Z,9.97
2019-02-20T17:49:26.280Z,10.33
2019-02-20T17:52:06.676Z,9.77
2019-02-20T17:54:47.225Z,8.53
2019-02-20T17:57:27.814Z,8.10
2019-02-20T18:00:08.736Z,8.93
2019-02-20T18:02:49.038Z,8.70
2019-02-20T18:05:29.738Z,8.60
2019-02-20T18:08:10.631Z,8.23
2019-02-20T18:10:51.376Z,10.13
2019-02-20T18:13:32.215Z,7.90
2019-02-20T18:16:13.119Z,8.07
2019-02-20T18:18:53.816Z,8.70
2019-02-20T18:21:34.875Z,7.70
2019-02-20T18:24:15.398Z,8.23
2019-02-20T18:26:57.835Z,8.10
2019-02-20T18:29:38.113Z,8.53
2019-02-20T18:32:18.451Z,8.20
2019-02-20T18:34:59.175Z,8.57
2019-02-20T18:37:39.749Z,8.93
2019-02-20T18:40:20.671Z,9.23
2019-02-20T18:43:01.368Z,10.43
2019-02-20T18:45:42.101Z,9.73
2019-02-20T18:48:10.556Z,8.40
2019-02-20T18:50:58.361Z,7.60
2019-02-20T18:53:40.795Z,7.80
2019-02-20T18:56:22.012Z,7.90
2019-02-20T18:59:03.213Z,8.70
2019-02-20T19:01:43.924Z,7.53
2019-02-20T19:04:24.634Z,8.30
2019-02-20T19:07:05.727Z,8.17
2019-02-20T19:09:46.839Z,8.07
2019-02-20T19:12:27.709Z,8.00
2019-02-20T19:15:10.093Z,7.43
2019-02-20T19:17:51.398Z,7.60
2019-02-20T19:20:32.135Z,7.47
2019-02-20T19:23:13.057Z,7.57
2019-02-20T19:25:53.842Z,7.77
2019-02-20T19:28:43.813Z,8.63
2019-02-20T19:31:17.546Z,8.00
2019-02-20T19:33:58.250Z,7.67
2019-02-20T19:36:38.907Z,7.97
2019-02-20T19:39:19.832Z,7.47
2019-02-20T19:42:00.781Z,7.17
2019-02-20T19:44:41.407Z,8.10
2019-02-20T19:47:21.996Z,7.70
2019-02-20T19:50:02.754Z,7.37
2019-02-20T19:52:43.709Z,7.83
2019-02-20T19:55:24.655Z,7.70
2019-02-20T19:58:05.453Z,7.83
2019-02-20T20:00:46.326Z,7.73
2019-02-20T20:03:27.177Z,9.00
2019-02-20T20:06:07.699Z,8.37
2019-02-20T20:08:48.514Z,8.07
2019-02-20T20:11:28.996Z,7.10
2019-02-20T20:14:09.621Z,8.30
2019-02-20T20:16:50.970Z,7.40
2019-02-20T20:19:32.359Z,7.73
2019-02-20T20:22:13.069Z,7.80
2019-02-20T20:24:53.667Z,7.07
2019-02-20T20:27:34.428Z,8.00
2019-02-20T20:30:15.258Z,6.67
2019-02-20T20:32:56.491Z,7.73
2019-02-20T20:35:36.773Z,7.43
2019-02-20T20:38:17.311Z,7.40
2019-02-20T20:40:58.085Z,7.03
2019-02-20T20:43:39.036Z,6.77
2019-02-20T20:46:19.693Z,7.00
2019-02-20T20:49:00.390Z,7.10
2019-02-20T20:51:40.849Z,6.73
2019-02-20T20:54:21.482Z,6.80
2019-02-20T20:57:02.594Z,6.97
2019-02-20T20:59:43.466Z,6.70
2019-02-20T21:02:24.351Z,6.47
2019-02-20T21:05:04.807Z,6.90
2019-02-20T21:07:45.582Z,6.37
2019-02-20T21:10:26.472Z,6.63
2019-02-20T21:13:06.901Z,6.40
2019-02-20T21:15:47.438Z,6.77
2019-02-20T21:18:27.972Z,7.20
2019-02-20T21:21:08.826Z,6.20
2019-02-20T21:23:49.438Z,6.80
2019-02-20T21:26:29.979Z,6.10
2019-02-20T21:29:10.842Z,5.77
2019-02-20T21:31:53.612Z,6.23
2019-02-20T21:34:33.704Z,6.63
2019-02-20T21:37:14.712Z,6.93
2019-02-20T21:39:55.263Z,6.00
2019-02-20T21:42:36.043Z,6.73
2019-02-20T21:45:16.851Z,6.07
2019-02-20T21:47:57.366Z,6.00
2019-02-20T21:50:38.035Z,6.03
2019-02-20T21:53:19.018Z,6.10
2019-02-20T21:55:59.983Z,6.37
2019-02-20T21:58:40.722Z,6.37
2019-02-20T22:01:21.835Z,5.97
2019-02-20T22:04:02.931Z,6.40
2019-02-20T22:06:43.204Z,6.47
2019-02-20T22:09:24.208Z,5.83
2019-02-20T22:12:04.913Z,5.33
2019-02-20T22:14:45.674Z,5.87
2019-02-20T22:17:26.067Z,6.03
2019-02-20T22:20:06.866Z,6.03
2019-02-20T22:22:47.508Z,5.70
2019-02-20T22:25:28.044Z,5.63
2019-02-20T22:28:08.942Z,6.20
2019-02-20T22:30:49.803Z,6.60
2019-02-20T22:33:30.788Z,6.17
2019-02-20T22:36:11.461Z,6.37
2019-02-20T22:38:52.187Z,7.00
2019-02-20T22:41:32.751Z,6.00
2019-02-20T22:44:13.313Z,6.10
2019-02-20T22:46:53.935Z,5.47
2019-02-20T22:49:35.052Z,6.30
2019-02-20T22:52:15.992Z,5.70
2019-02-20T22:54:56.466Z,5.60
2019-02-20T22:57:36.985Z,5.77
2019-02-20T23:00:18.547Z,5.93
2019-02-20T23:02:58.895Z,6.00
2019-02-20T23:05:39.774Z,6.00
2019-02-20T23:08:20.883Z,5.83
2019-02-20T23:11:01.500Z,6.23
2019-02-20T23:13:41.940Z,5.50
2019-02-20T23:16:22.702Z,5.93
2019-02-20T23:19:03.255Z,6.07
2019-02-20T23:21:44.079Z,6.10
2019-02-20T23:24:24.849Z,5.67
2019-02-20T23:27:05.943Z,5.97
2019-02-20T23:29:46.981Z,6.33
2019-02-20T23:32:27.665Z,6.00
2019-02-20T23:35:08.137Z,6.40
2019-02-20T23:37:48.710Z,6.23
2019-02-20T23:40:29.347Z,7.20
2019-02-20T23:43:10.326Z,7.03
2019-02-20T23:45:51.086Z,7.37
2019-02-20T23:48:32.208Z,7.37
2019-02-20T23:51:12.952Z,7.30
2019-02-20T23:53:53.170Z,8.30
2019-02-20T23:56:34.011Z,8.13
2019-02-20T23:59:14.851Z,8.43
